createdAt,value
2016-02-08T00:00:23.266Z,0
2016-02-08T00:01:23.317Z,0
2016-02-08T00:02:23.367Z,0
2016-02-08T00:03:23.417Z,0
2016-02-08T00:04:23.341Z,0
2016-02-08T00:05:23.533Z,0
2016-02-08T00:06:23.583Z,0
2016-02-08T00:07:23.633Z,0
2016-02-08T00:08:23.698Z,0
2016-02-08T00:09:23.747Z,0
2016-02-08T00:10:23.782Z,0
2016-02-08T00:11:23.832Z,0
2016-02-08T00:12:23.918Z,0
2016-02-08T00:13:23.936Z,0
2016-02-08T00:14:23.986Z,0
2016-02-08T00:15:24.067Z,0
2016-02-08T00:16:24.117Z,0
2016-02-08T00:17:24.150Z,0
2016-02-08T00:18:24.231Z,0
2016-02-08T00:19:24.268Z,0
2016-02-08T00:20:24.301Z,0
2016-02-08T00:21:24.382Z,0
2016-02-08T00:22:24.416Z,0
2016-02-08T00:23:24.481Z,0
2016-02-08T00:24:24.531Z,0
2016-02-08T00:25:24.564Z,0
2016-02-08T00:26:24.629Z,0
2016-02-08T00:27:24.713Z,0
2016-02-08T00:28:24.730Z,0
2016-02-08T00:29:24.796Z,0
2016-02-08T00:30:24.861Z,0
2016-02-08T00:31:24.880Z,0
2016-02-08T00:32:24.944Z,0
2016-02-08T00:33:24.994Z,0
2016-02-08T00:34:25.060Z,0
2016-02-08T00:35:25.113Z,0
2016-02-08T00:36:25.147Z,0
2016-02-08T00:37:25.196Z,0
2016-02-08T00:38:25.278Z,0
2016-02-08T00:39:25.295Z,0
2016-02-08T00:40:25.345Z,0
2016-02-08T00:41:25.412Z,0
2016-02-08T00:42:25.462Z,0
2016-02-08T00:43:25.490Z,0
2016-02-08T00:44:25.571Z,0
2016-02-08T00:45:25.621Z,0
2016-02-08T00:46:25.654Z,0
2016-02-08T00:47:25.735Z,0
2016-02-08T00:48:25.784Z,0
2016-02-08T00:49:25.818Z,0
2016-02-08T00:50:25.884Z,0
2016-02-08T00:51:25.790Z,0
2016-02-08T00:52:25.973Z,0
2016-02-08T00:53:26.038Z,0
2016-02-08T00:54:26.118Z,0
2016-02-08T00:55:26.121Z,0
2016-02-08T00:56:26.187Z,0
2016-02-08T00:57:26.268Z,0
2016-02-08T00:58:26.287Z,0
2016-02-08T00:59:26.338Z,0
2016-02-08T01:00:26.418Z,0
2016-02-08T01:01:26.451Z,0
2016-02-08T01:02:26.505Z,0
2016-02-08T01:03:26.555Z,0
2016-02-08T01:04:26.604Z,0
2016-02-08T01:05:26.672Z,0
2016-02-08T01:06:26.705Z,0
2016-02-08T01:07:26.756Z,0
2016-02-08T01:08:26.069Z,0
2016-02-08T01:09:26.871Z,0
2016-02-08T01:10:26.906Z,0
2016-02-08T01:11:26.989Z,0
2016-02-08T01:12:26.286Z,0
2016-02-08T01:13:27.073Z,0
2016-02-08T01:14:27.122Z,0
2016-02-08T01:15:27.188Z,0
2016-02-08T01:16:27.238Z,0
2016-02-08T01:17:27.287Z,0
2016-02-08T01:18:27.337Z,0
2016-02-08T01:19:27.418Z,0
2016-02-08T01:20:27.452Z,0
2016-02-08T01:21:27.329Z,0
2016-02-08T01:22:27.567Z,0
2016-02-08T01:23:27.616Z,0
2016-02-08T01:24:27.635Z,0
2016-02-08T01:25:27.700Z,0
2016-02-08T01:26:27.750Z,0
2016-02-08T01:27:27.815Z,0
2016-02-08T01:28:27.896Z,0
2016-02-08T01:29:27.915Z,0
2016-02-08T01:30:27.965Z,0
2016-02-08T01:31:28.029Z,0
2016-02-08T01:32:28.063Z,0
2016-02-08T01:33:28.112Z,0
2016-02-08T01:34:28.193Z,0
2016-02-08T01:35:28.212Z,0
2016-02-08T01:36:28.277Z,8
2016-02-08T01:37:28.359Z,12
2016-02-08T01:38:28.377Z,12
2016-02-08T01:39:28.442Z,12
2016-02-08T01:40:28.488Z,12
2016-02-08T01:41:28.537Z,0
2016-02-08T01:42:28.603Z,0
2016-02-08T01:43:28.637Z,0
2016-02-08T01:44:28.718Z,0
2016-02-08T01:45:28.768Z,0
2016-02-08T01:46:28.819Z,0
2016-02-08T01:47:28.884Z,0
2016-02-08T01:48:28.948Z,0
2016-02-08T01:49:28.968Z,0
2016-02-08T01:50:29.019Z,0
2016-02-08T01:51:29.083Z,0
2016-02-08T01:52:29.117Z,0
2016-02-08T01:53:29.182Z,0
2016-02-08T01:54:29.247Z,0
2016-02-08T01:55:29.281Z,0
2016-02-08T01:56:29.362Z,0
2016-02-08T01:57:29.396Z,0
2016-02-08T01:58:29.415Z,0
2016-02-08T01:59:29.497Z,0
2016-02-08T02:00:29.561Z,0
2016-02-08T02:01:29.610Z,0
2016-02-08T02:02:29.644Z,0
2016-02-08T02:03:29.699Z,0
2016-02-08T02:04:29.732Z,0
2016-02-08T02:05:29.813Z,0
2016-02-08T02:06:29.831Z,0
2016-02-08T02:07:29.912Z,0
2016-02-08T02:08:29.961Z,0
2016-02-08T02:09:30.017Z,0
2016-02-08T02:10:30.067Z,0
2016-02-08T02:11:30.131Z,0
2016-02-08T02:12:30.181Z,0
2016-02-08T02:13:30.200Z,0
2016-02-08T02:14:30.280Z,0
2016-02-08T02:15:30.330Z,0
2016-02-08T02:16:30.364Z,0
2016-02-08T02:17:30.429Z,0
2016-02-08T02:18:30.494Z,0
2016-02-08T02:19:30.559Z,0
2016-02-08T02:20:30.578Z,0
2016-02-08T02:21:30.644Z,0
2016-02-08T02:22:30.708Z,0
2016-02-08T02:23:30.727Z,0
2016-02-08T02:24:30.792Z,8
2016-02-08T02:25:30.859Z,0
2016-02-08T02:26:30.892Z,0
2016-02-08T02:27:30.925Z,0
2016-02-08T02:28:31.006Z,0
2016-02-08T02:29:31.041Z,0
2016-02-08T02:30:31.106Z,0
2016-02-08T02:31:31.172Z,0
2016-02-08T02:32:31.205Z,0
2016-02-08T02:33:31.271Z,0
2016-02-08T02:34:31.320Z,0
2016-02-08T02:35:31.401Z,0
2016-02-08T02:36:31.404Z,0
2016-02-08T02:37:31.454Z,0
2016-02-08T02:38:31.522Z,0
2016-02-08T02:39:31.556Z,0
2016-02-08T02:40:31.607Z,0
2016-02-08T02:41:30.922Z,0
2016-02-08T02:42:31.721Z,0
2016-02-08T02:43:31.802Z,0
2016-02-08T02:44:31.821Z,0
2016-02-08T02:45:31.885Z,0
2016-02-08T02:46:31.984Z,0
2016-02-08T02:47:31.971Z,0
2016-02-08T02:48:32.021Z,0
2016-02-08T02:49:32.117Z,0
2016-02-08T02:50:32.136Z,0
2016-02-08T02:51:32.185Z,0
2016-02-08T02:52:32.267Z,0
2016-02-08T02:53:32.301Z,0
2016-02-08T02:54:32.337Z,0
2016-02-08T02:55:32.417Z,0
2016-02-08T02:56:32.451Z,0
2016-02-08T02:57:32.517Z,0
2016-02-08T02:58:32.567Z,0
2016-02-08T02:59:32.618Z,0
2016-02-08T03:00:32.666Z,0
2016-02-08T03:01:32.731Z,0
2016-02-08T03:02:32.796Z,0
2016-02-08T03:03:32.846Z,0
2016-02-08T03:04:32.880Z,0
2016-02-08T03:05:32.946Z,0
2016-02-08T03:06:32.995Z,0
2016-02-08T03:07:33.059Z,0
2016-02-08T03:08:33.079Z,0
2016-02-08T03:09:33.144Z,0
2016-02-08T03:10:33.193Z,0
2016-02-08T03:11:33.261Z,0
2016-02-08T03:12:33.310Z,0
2016-02-08T03:13:33.360Z,0
2016-02-08T03:14:33.393Z,0
2016-02-08T03:15:33.458Z,0
2016-02-08T03:16:33.524Z,0
2016-02-08T03:17:33.588Z,0
2016-02-08T03:18:33.624Z,0
2016-02-08T03:19:33.657Z,0
2016-02-08T03:20:33.722Z,0
2016-02-08T03:21:33.776Z,0
2016-02-08T03:22:33.857Z,0
2016-02-08T03:23:33.892Z,0
2016-02-08T03:24:33.926Z,0
2016-02-08T03:25:34.007Z,0
2016-02-08T03:26:34.039Z,0
2016-02-08T03:27:34.073Z,0
2016-02-08T03:28:34.155Z,0
2016-02-08T03:29:34.205Z,0
2016-02-08T03:30:34.240Z,0
2016-02-08T03:31:34.305Z,0
2016-02-08T03:32:34.338Z,0
2016-02-08T03:33:34.404Z,0
2016-02-08T03:34:34.468Z,0
2016-02-08T03:35:34.346Z,0
2016-02-08T03:36:34.568Z,0
2016-02-08T03:37:34.634Z,0
2016-02-08T03:38:34.668Z,0
2016-02-08T03:39:34.717Z,0
2016-02-08T03:40:34.782Z,0
2016-02-08T03:41:34.816Z,0
2016-02-08T03:42:34.884Z,0
2016-02-08T03:43:34.916Z,0
2016-02-08T03:44:34.966Z,0
2016-02-08T03:45:35.047Z,0
2016-02-08T03:46:35.096Z,0
2016-02-08T03:47:35.146Z,0
2016-02-08T03:48:35.182Z,0
2016-02-08T03:49:35.247Z,0
2016-02-08T03:50:35.300Z,0
2016-02-08T03:51:35.351Z,0
2016-02-08T03:52:35.385Z,0
2016-02-08T03:53:35.481Z,0
2016-02-08T03:54:35.484Z,0
2016-02-08T03:55:35.549Z,0
2016-02-08T03:56:35.631Z,0
2016-02-08T03:57:35.650Z,0
2016-02-08T03:58:35.699Z,0
2016-02-08T03:59:35.826Z,0
2016-02-08T04:00:35.814Z,0
2016-02-08T04:01:35.895Z,0
2016-02-08T04:02:35.913Z,0
2016-02-08T04:03:35.212Z,0
2016-02-08T04:04:36.044Z,0
2016-02-08T04:05:36.092Z,0
2016-02-08T04:06:36.111Z,0
2016-02-08T04:07:36.191Z,0
2016-02-08T04:08:36.257Z,0
2016-02-08T04:09:36.276Z,0
2016-02-08T04:10:36.357Z,0
2016-02-08T04:11:36.406Z,0
2016-02-08T04:12:36.427Z,0
2016-02-08T04:13:36.492Z,0
2016-02-08T04:14:36.573Z,0
2016-02-08T04:15:36.575Z,0
2016-02-08T04:16:36.641Z,0
2016-02-08T04:17:36.723Z,0
2016-02-08T04:18:36.772Z,0
2016-02-08T04:19:36.806Z,0
2016-02-08T04:20:36.887Z,0
2016-02-08T04:21:36.921Z,0
2016-02-08T04:22:36.956Z,0
2016-02-08T04:23:37.036Z,0
2016-02-08T04:24:37.070Z,0
2016-02-08T04:25:37.121Z,0
2016-02-08T04:26:37.202Z,0
2016-02-08T04:27:37.221Z,0
2016-02-08T04:28:37.302Z,0
2016-02-08T04:29:37.351Z,0
2016-02-08T04:30:37.402Z,0
2016-02-08T04:31:37.450Z,0
2016-02-08T04:32:37.500Z,0
2016-02-08T04:33:37.566Z,0
2016-02-08T04:34:37.600Z,0
2016-02-08T04:35:37.650Z,0
2016-02-08T04:36:37.700Z,0
2016-02-08T04:37:37.749Z,0
2016-02-08T04:38:37.800Z,0
2016-02-08T04:39:37.880Z,0
2016-02-08T04:40:37.914Z,0
2016-02-08T04:41:37.948Z,0
2016-02-08T04:42:38.031Z,0
2016-02-08T04:43:38.112Z,0
2016-02-08T04:44:38.100Z,0
2016-02-08T04:45:38.180Z,0
2016-02-08T04:46:38.245Z,0
2016-02-08T04:47:38.263Z,0
2016-02-08T04:48:38.329Z,0
2016-02-08T04:49:38.410Z,0
2016-02-08T04:50:38.427Z,0
2016-02-08T04:51:38.493Z,0
2016-02-08T04:52:38.544Z,0
2016-02-08T04:53:38.594Z,0
2016-02-08T04:54:38.659Z,0
2016-02-08T04:55:38.692Z,0
2016-02-08T04:56:38.773Z,0
2016-02-08T04:57:38.808Z,0
2016-02-08T04:58:38.841Z,0
2016-02-08T04:59:38.922Z,0
2016-02-08T05:00:38.987Z,0
2016-02-08T05:01:39.005Z,0
2016-02-08T05:02:39.055Z,0
2016-02-08T05:03:39.151Z,0
2016-02-08T05:04:39.057Z,0
2016-02-08T05:05:39.232Z,0
2016-02-08T05:06:39.282Z,0
2016-02-08T05:07:39.332Z,0
2016-02-08T05:08:39.396Z,0
2016-02-08T05:09:39.446Z,0
2016-02-08T05:10:39.495Z,0
2016-02-08T05:11:39.576Z,0
2016-02-08T05:12:39.589Z,0
2016-02-08T05:13:39.639Z,0
2016-02-08T05:14:39.689Z,0
2016-02-08T05:15:39.769Z,0
2016-02-08T05:16:39.802Z,0
2016-02-08T05:17:39.852Z,0
2016-02-08T05:18:39.902Z,0
2016-02-08T05:19:39.968Z,0
2016-02-08T05:20:40.048Z,0
2016-02-08T05:21:40.052Z,0
2016-02-08T05:22:40.110Z,0
2016-02-08T05:23:40.181Z,0
2016-02-08T05:24:40.191Z,0
2016-02-08T05:25:40.278Z,0
2016-02-08T05:26:40.288Z,0
2016-02-08T05:27:40.318Z,0
2016-02-08T05:28:40.396Z,0
2016-02-08T05:29:40.427Z,0
2016-02-08T05:30:40.519Z,0
2016-02-08T05:31:40.551Z,0
2016-02-08T05:32:40.552Z,0
2016-02-08T05:33:40.631Z,0
2016-02-08T05:34:40.695Z,0
2016-02-08T05:35:40.727Z,0
2016-02-08T05:36:40.776Z,0
2016-02-08T05:37:40.841Z,0
2016-02-08T05:38:40.906Z,0
2016-02-08T05:39:40.924Z,0
2016-02-08T05:40:40.990Z,0
2016-02-08T05:41:41.136Z,0
2016-02-08T05:42:41.107Z,0
2016-02-08T05:43:41.126Z,0
2016-02-08T05:44:41.192Z,0
2016-02-08T05:45:41.289Z,0
2016-02-08T05:46:41.291Z,0
2016-02-08T05:47:41.356Z,0
2016-02-08T05:48:41.437Z,0
2016-02-08T05:49:41.455Z,0
2016-02-08T05:50:41.504Z,0
2016-02-08T05:51:41.586Z,0
2016-02-08T05:52:41.635Z,0
2016-02-08T05:53:41.653Z,0
2016-02-08T05:54:41.750Z,0
2016-02-08T05:55:41.815Z,0
2016-02-08T05:56:41.818Z,0
2016-02-08T05:57:41.867Z,0
2016-02-08T05:58:41.963Z,0
2016-02-08T05:59:41.982Z,0
2016-02-08T06:00:41.875Z,0
2016-02-08T06:01:42.097Z,0
2016-02-08T06:02:42.164Z,0
2016-02-08T06:03:42.181Z,0
2016-02-08T06:04:42.261Z,0
2016-02-08T06:05:42.312Z,0
2016-02-08T06:06:42.346Z,0
2016-02-08T06:07:42.410Z,0
2016-02-08T06:08:42.444Z,0
2016-02-08T06:09:42.525Z,0
2016-02-08T06:10:42.575Z,0
2016-02-08T06:11:42.593Z,0
2016-02-08T06:12:42.674Z,0
2016-02-08T06:13:42.741Z,0
2016-02-08T06:14:42.761Z,0
2016-02-08T06:15:42.827Z,0
2016-02-08T06:16:42.892Z,0
2016-02-08T06:17:42.911Z,0
2016-02-08T06:18:42.975Z,0
2016-02-08T06:19:43.056Z,0
2016-02-08T06:20:43.075Z,0
2016-02-08T06:21:43.139Z,0
2016-02-08T06:22:43.189Z,0
2016-02-08T06:23:43.270Z,0
2016-02-08T06:24:43.306Z,0
2016-02-08T06:25:43.339Z,0
2016-02-08T06:26:43.419Z,0
2016-02-08T06:27:43.454Z,0
2016-02-08T06:28:43.489Z,0
2016-02-08T06:29:43.571Z,0
2016-02-08T06:30:43.620Z,0
2016-02-08T06:31:43.638Z,0
2016-02-08T06:32:43.719Z,0
2016-02-08T06:33:43.785Z,0
2016-02-08T06:34:43.818Z,0
2016-02-08T06:35:43.868Z,0
2016-02-08T06:36:43.907Z,0
2016-02-08T06:37:43.971Z,0
2016-02-08T06:38:44.053Z,0
2016-02-08T06:39:44.056Z,0
2016-02-08T06:40:44.136Z,0
2016-02-08T06:41:44.217Z,0
2016-02-08T06:42:44.235Z,0
2016-02-08T06:43:44.285Z,0
2016-02-08T06:44:44.353Z,0
2016-02-08T06:45:44.387Z,0
2016-02-08T06:46:44.452Z,0
2016-02-08T06:47:44.501Z,0
2016-02-08T06:48:44.551Z,0
2016-02-08T06:49:44.600Z,0
2016-02-08T06:50:44.668Z,0
2016-02-08T06:51:44.702Z,0
2016-02-08T06:52:44.767Z,0
2016-02-08T06:53:44.816Z,0
2016-02-08T06:54:44.866Z,0
2016-02-08T06:55:44.932Z,0
2016-02-08T06:56:44.965Z,0
2016-02-08T06:57:45.015Z,0
2016-02-08T06:58:45.098Z,0
2016-02-08T06:59:45.115Z,0
2016-02-08T07:00:45.181Z,0
2016-02-08T07:01:45.262Z,0
2016-02-08T07:02:45.280Z,0
2016-02-08T07:03:45.362Z,0
2016-02-08T07:04:45.396Z,0
2016-02-08T07:05:45.429Z,0
2016-02-08T07:06:45.515Z,0
2016-02-08T07:07:45.564Z,0
2016-02-08T07:08:45.582Z,0
2016-02-08T07:09:45.648Z,0
2016-02-08T07:10:45.728Z,0
2016-02-08T07:11:45.748Z,0
2016-02-08T07:12:45.813Z,0
2016-02-08T07:13:45.862Z,0
2016-02-08T07:14:45.914Z,0
2016-02-08T07:15:45.979Z,0
2016-02-08T07:16:46.013Z,4
2016-02-08T07:17:46.063Z,0
2016-02-08T07:18:46.127Z,0
2016-02-08T07:19:46.021Z,0
2016-02-08T07:20:46.243Z,0
2016-02-08T07:21:46.277Z,0
2016-02-08T07:22:46.342Z,0
2016-02-08T07:23:46.376Z,4
2016-02-08T07:24:46.441Z,0
2016-02-08T07:25:46.351Z,4
2016-02-08T07:26:46.572Z,0
2016-02-08T07:27:46.574Z,0
2016-02-08T07:28:46.656Z,0
2016-02-08T07:29:46.721Z,0
2016-02-08T07:30:46.738Z,0
2016-02-08T07:31:46.789Z,0
2016-02-08T07:32:46.885Z,0
2016-02-08T07:33:46.904Z,0
2016-02-08T07:34:46.954Z,0
2016-02-08T07:35:47.034Z,4
2016-02-08T07:36:47.084Z,0
2016-02-08T07:37:47.133Z,4
2016-02-08T07:38:47.183Z,12
2016-02-08T07:39:47.233Z,16
2016-02-08T07:40:47.736Z,16
2016-02-08T07:41:47.381Z,16
2016-02-08T07:42:47.759Z,12
2016-02-08T07:43:47.496Z,12
2016-02-08T07:44:47.500Z,8
2016-02-08T07:45:47.581Z,8
2016-02-08T07:46:47.652Z,4
2016-02-08T07:47:47.638Z,4
2016-02-08T07:48:47.766Z,4
2016-02-08T07:49:47.832Z,4
2016-02-08T07:50:47.803Z,4
2016-02-08T07:51:47.837Z,0
2016-02-08T07:52:47.948Z,4
2016-02-08T07:53:47.999Z,4
2016-02-08T07:54:48.032Z,4
2016-02-08T07:55:48.098Z,4
2016-02-08T07:56:48.257Z,0
2016-02-08T07:57:48.212Z,0
2016-02-08T07:58:48.215Z,0
2016-02-08T07:59:48.282Z,0
2016-02-08T08:00:48.394Z,0
2016-02-08T08:01:48.413Z,0
2016-02-08T08:02:48.478Z,0
2016-02-08T08:03:48.527Z,0
2016-02-08T08:04:48.562Z,0
2016-02-08T08:05:48.611Z,0
2016-02-08T08:06:48.660Z,0
2016-02-08T08:07:48.803Z,0
2016-02-08T08:08:48.822Z,0
2016-02-08T08:09:48.856Z,4
2016-02-08T08:10:48.936Z,4
2016-02-08T08:11:48.971Z,4
2016-02-08T08:12:48.932Z,4
2016-02-08T08:13:49.043Z,4
2016-02-08T08:14:49.078Z,4
2016-02-08T08:15:49.127Z,4
2016-02-08T08:16:49.238Z,4
2016-02-08T08:17:49.226Z,4
2016-02-08T08:18:49.260Z,4
2016-02-08T08:19:49.371Z,0
2016-02-08T08:20:49.374Z,4
2016-02-08T08:21:49.441Z,0
2016-02-08T08:22:49.521Z,4
2016-02-08T08:23:49.572Z,4
2016-02-08T08:24:49.668Z,0
2016-02-08T08:25:49.670Z,0
2016-02-08T08:26:49.737Z,4
2016-02-08T08:27:49.755Z,4
2016-02-08T08:28:49.788Z,4
2016-02-08T08:29:49.951Z,4
2016-02-08T08:30:53.063Z,8
2016-02-08T08:31:50.003Z,8
2016-02-08T08:32:50.130Z,8
2016-02-08T08:33:50.180Z,8
2016-02-08T08:34:50.200Z,4
2016-02-08T08:35:50.170Z,4
2016-02-08T08:36:50.268Z,4
2016-02-08T08:37:50.317Z,4
2016-02-08T08:38:50.288Z,4
2016-02-08T08:39:50.385Z,4
2016-02-08T08:40:50.450Z,4
2016-02-08T08:41:50.500Z,4
2016-02-08T08:42:50.598Z,4
2016-02-08T08:43:50.600Z,4
2016-02-08T08:44:50.806Z,4
2016-02-08T08:45:50.683Z,4
2016-02-08T08:46:50.842Z,4
2016-02-08T08:47:50.829Z,4
2016-02-08T08:48:50.848Z,4
2016-02-08T08:49:50.992Z,4
2016-02-08T08:50:51.027Z,4
2016-02-08T08:51:51.076Z,4
2016-02-08T08:52:51.111Z,4
2016-02-08T08:53:51.113Z,4
2016-02-08T08:54:51.240Z,0
2016-02-08T08:55:51.260Z,4
2016-02-08T08:56:51.278Z,0
2016-02-08T08:57:51.328Z,4
2016-02-08T08:58:51.408Z,4
2016-02-08T08:59:51.489Z,4
2016-02-08T09:00:51.492Z,4
2016-02-08T09:01:51.606Z,4
2016-02-08T09:02:51.592Z,4
2016-02-08T09:03:51.642Z,4
2016-02-08T09:04:51.727Z,4
2016-02-08T09:05:51.760Z,4
2016-02-08T09:06:51.826Z,4
2016-02-08T09:07:51.860Z,4
2016-02-08T09:08:51.909Z,4
2016-02-08T09:09:52.069Z,4
2016-02-08T09:10:52.026Z,4
2016-02-08T09:11:52.061Z,0
2016-02-08T09:12:52.080Z,0
2016-02-08T09:13:52.207Z,4
2016-02-08T09:14:52.243Z,0
2016-02-08T09:15:52.261Z,4
2016-02-08T09:16:52.310Z,8
2016-02-08T09:17:52.346Z,8
2016-02-08T09:18:52.520Z,8
2016-02-08T09:19:52.491Z,16
2016-02-08T09:20:52.575Z,12
2016-02-08T09:21:52.578Z,16
2016-02-08T09:22:52.752Z,16
2016-02-08T09:23:52.848Z,20
2016-02-08T09:24:52.727Z,20
2016-02-08T09:25:52.885Z,20
2016-02-08T09:26:52.950Z,16
2016-02-08T09:27:52.907Z,16
2016-02-08T09:28:52.972Z,24
2016-02-08T09:29:53.083Z,20
2016-02-08T09:30:53.087Z,24
2016-02-08T09:31:53.105Z,28
2016-02-08T09:32:53.186Z,28
2016-02-08T09:33:53.282Z,36
2016-02-08T09:34:53.269Z,36
2016-02-08T09:35:53.334Z,36
2016-02-08T09:36:53.368Z,64
2016-02-08T09:37:53.433Z,100
2016-02-08T09:38:53.452Z,200
2016-02-08T09:39:53.517Z,188
2016-02-08T09:40:53.631Z,176
2016-02-08T09:41:53.633Z,196
2016-02-08T09:42:53.681Z,224
2016-02-08T09:43:53.889Z,196
2016-02-08T09:44:53.877Z,128
2016-02-08T09:45:53.911Z,96
2016-02-08T09:46:53.898Z,76
2016-02-08T09:47:54.150Z,116
2016-02-08T09:48:54.060Z,148
2016-02-08T09:49:54.062Z,92
2016-02-08T09:50:54.127Z,76
2016-02-08T09:51:54.177Z,52
2016-02-08T09:52:54.212Z,36
2016-02-08T09:53:54.310Z,20
2016-02-08T09:54:54.343Z,16
2016-02-08T09:55:54.455Z,12
2016-02-08T09:56:54.459Z,12
2016-02-08T09:57:54.476Z,16
2016-02-08T09:58:54.510Z,20
2016-02-08T09:59:54.748Z,28
2016-02-08T10:00:54.812Z,40
2016-02-08T10:01:54.644Z,40
2016-02-08T10:02:54.772Z,32
2016-02-08T10:03:54.820Z,24
2016-02-08T10:04:54.886Z,16
2016-02-08T10:05:54.935Z,16
2016-02-08T10:06:54.959Z,20
2016-02-08T10:07:55.289Z,24
2016-02-08T10:08:55.074Z,32
2016-02-08T10:09:55.217Z,48
2016-02-08T10:10:55.142Z,48
2016-02-08T10:11:55.239Z,36
2016-02-08T10:12:55.319Z,32
2016-02-08T10:13:55.338Z,36
2016-02-08T10:14:55.358Z,36
2016-02-08T10:15:55.454Z,48
2016-02-08T10:16:55.457Z,48
2016-02-08T10:17:55.538Z,56
2016-02-08T10:18:55.588Z,60
2016-02-08T10:19:55.639Z,100
2016-02-08T10:20:55.688Z,100
2016-02-08T10:21:55.769Z,76
2016-02-08T10:22:55.803Z,68
2016-02-08T10:23:55.993Z,44
2016-02-08T10:24:55.871Z,32
2016-02-08T10:25:56.014Z,40
2016-02-08T10:26:55.969Z,40
2016-02-08T10:27:56.036Z,120
2016-02-08T10:28:56.147Z,56
2016-02-08T10:29:56.150Z,48
2016-02-08T10:30:56.293Z,44
2016-02-08T10:31:59.328Z,52
2016-02-08T10:32:56.361Z,56
2016-02-08T10:33:56.364Z,56
2016-02-08T10:34:56.383Z,48
2016-02-08T10:35:56.447Z,40
2016-02-08T10:36:56.482Z,44
2016-02-08T10:37:56.578Z,40
2016-02-08T10:38:56.643Z,96
2016-02-08T10:39:56.647Z,68
2016-02-08T10:40:56.711Z,68
2016-02-08T10:41:56.794Z,68
2016-02-08T10:42:56.812Z,56
2016-02-08T10:43:56.861Z,64
2016-02-08T10:44:56.928Z,48
2016-02-08T10:45:57.008Z,36
2016-02-08T10:46:57.058Z,28
2016-02-08T10:47:57.091Z,36
2016-02-08T10:48:57.126Z,32
2016-02-08T10:49:57.175Z,24
2016-02-08T10:50:57.255Z,20
2016-02-08T10:51:57.274Z,28
2016-02-08T10:52:57.355Z,24
2016-02-08T10:53:57.435Z,28
2016-02-08T10:54:57.516Z,32
2016-02-08T10:55:57.549Z,36
2016-02-08T10:56:57.553Z,40
2016-02-08T10:57:57.587Z,32
2016-02-08T10:58:57.668Z,48
2016-02-08T10:59:57.780Z,52
2016-02-08T11:00:57.813Z,48
2016-02-08T11:01:57.832Z,48
2016-02-08T11:02:57.914Z,60
2016-02-08T11:03:57.979Z,60
2016-02-08T11:04:57.981Z,92
2016-02-08T11:05:58.030Z,116
2016-02-08T11:07:01.112Z,116
2016-02-08T11:07:58.130Z,116
2016-02-08T11:08:58.183Z,80
2016-02-08T11:09:58.248Z,100
2016-02-08T11:10:58.302Z,120
2016-02-08T11:11:58.335Z,100
2016-02-08T11:12:58.416Z,96
2016-02-08T11:13:58.450Z,64
2016-02-08T11:14:58.562Z,76
2016-02-08T11:15:58.534Z,68
2016-02-08T11:16:58.693Z,76
2016-02-08T11:17:58.665Z,60
2016-02-08T11:18:58.684Z,44
2016-02-08T11:19:58.779Z,24
2016-02-08T11:20:58.815Z,20
2016-02-08T11:21:58.864Z,28
2016-02-08T11:22:59.023Z,32
2016-02-08T11:23:59.010Z,24
2016-02-08T11:24:59.029Z,24
2016-02-08T11:25:59.064Z,24
2016-02-08T11:26:59.222Z,16
2016-02-08T11:27:59.178Z,32
2016-02-08T11:28:59.306Z,36
2016-02-08T11:29:59.281Z,28
2016-02-08T11:30:59.565Z,16
2016-02-08T11:31:59.490Z,24
2016-02-08T11:32:59.556Z,24
2016-02-08T11:33:59.511Z,20
2016-02-08T11:34:59.576Z,20
2016-02-08T11:35:59.609Z,24
2016-02-08T11:36:59.659Z,28
2016-02-08T11:37:59.701Z,20
2016-02-08T11:38:59.766Z,28
2016-02-08T11:39:59.831Z,40
2016-02-08T11:40:59.162Z,20
2016-02-08T11:41:59.915Z,16
2016-02-08T11:43:00.027Z,28
2016-02-08T11:44:00.032Z,24
2016-02-08T11:45:00.113Z,16
2016-02-08T11:46:00.194Z,12
2016-02-08T11:47:00.197Z,28
2016-02-08T11:48:00.278Z,16
2016-02-08T11:49:00.141Z,32
2016-02-08T11:50:00.330Z,40
2016-02-08T11:51:00.536Z,56
2016-02-08T11:52:00.478Z,32
2016-02-08T11:53:00.511Z,32
2016-02-08T11:54:00.561Z,40
2016-02-08T11:55:00.578Z,60
2016-02-08T11:56:00.645Z,60
2016-02-08T11:57:00.746Z,60
2016-02-08T11:58:00.794Z,48
2016-02-08T11:59:00.813Z,44
2016-02-08T12:00:00.897Z,40
2016-02-08T12:01:00.978Z,40
2016-02-08T12:02:01.043Z,36
2016-02-08T12:03:01.093Z,28
2016-02-08T12:04:01.189Z,20
2016-02-08T12:05:01.162Z,16
2016-02-08T12:06:01.211Z,36
2016-02-08T12:07:01.234Z,48
2016-02-08T12:08:01.300Z,44
2016-02-08T12:09:01.333Z,56
2016-02-08T12:10:01.367Z,44
2016-02-08T12:11:01.463Z,48
2016-02-08T12:12:01.498Z,40
2016-02-08T12:13:01.533Z,28
2016-02-08T12:14:01.597Z,28
2016-02-08T12:15:01.648Z,32
2016-02-08T12:16:01.681Z,28
2016-02-08T12:17:01.747Z,32
2016-02-08T12:18:01.874Z,36
2016-02-08T12:19:01.861Z,36
2016-02-08T12:20:01.989Z,24
2016-02-08T12:21:01.992Z,32
2016-02-08T12:22:02.025Z,40
2016-02-08T12:23:02.107Z,36
2016-02-08T12:24:02.203Z,28
2016-02-08T12:25:02.190Z,24
2016-02-08T12:26:02.255Z,20
2016-02-08T12:27:02.353Z,12
2016-02-08T12:28:02.339Z,16
2016-02-08T12:29:02.405Z,16
2016-02-08T12:30:02.486Z,12
2016-02-08T12:31:02.519Z,16
2016-02-08T12:32:02.585Z,12
2016-02-08T12:33:02.588Z,12
2016-02-08T12:34:02.637Z,8
2016-02-08T12:35:02.703Z,8
2016-02-08T12:36:02.737Z,8
2016-02-08T12:37:02.881Z,8
2016-02-08T12:38:02.868Z,8
2016-02-08T12:39:02.901Z,8
2016-02-08T12:40:02.952Z,8
2016-02-08T12:41:03.002Z,8
2016-02-08T12:42:03.051Z,8
2016-02-08T12:43:03.118Z,8
2016-02-08T12:44:03.152Z,4
2016-02-08T12:45:03.201Z,4
2016-02-08T12:46:03.282Z,4
2016-02-08T12:47:03.316Z,4
2016-02-08T12:48:03.351Z,4
2016-02-08T12:49:03.416Z,8
2016-02-08T12:50:03.480Z,8
2016-02-08T12:51:03.515Z,8
2016-02-08T12:52:03.548Z,12
2016-02-08T12:53:03.646Z,12
2016-02-08T12:54:03.694Z,12
2016-02-08T12:55:03.713Z,16
2016-02-08T12:56:03.637Z,20
2016-02-08T12:57:03.844Z,32
2016-02-08T12:58:03.924Z,36
2016-02-08T12:59:03.942Z,40
2016-02-08T13:00:03.977Z,40
2016-02-08T13:01:04.042Z,16
2016-02-08T13:02:04.155Z,52
2016-02-08T13:03:04.173Z,56
2016-02-08T13:04:04.207Z,56
2016-02-08T13:05:04.257Z,80
2016-02-08T13:06:04.307Z,104
2016-02-08T13:07:04.402Z,116
2016-02-08T13:08:04.492Z,76
2016-02-08T13:09:04.573Z,60
2016-02-08T13:10:04.546Z,68
2016-02-08T13:11:04.439Z,56
2016-02-08T13:12:04.675Z,72
2016-02-08T13:13:04.757Z,64
2016-02-08T13:14:04.712Z,64
2016-02-08T13:15:04.840Z,60
2016-02-08T13:16:04.842Z,64
2016-02-08T13:17:04.892Z,60
2016-02-08T13:18:04.911Z,60
2016-02-08T13:19:05.054Z,60
2016-02-08T13:20:05.056Z,64
2016-02-08T13:21:05.090Z,64
2016-02-08T13:22:05.141Z,64
2016-02-08T13:23:05.207Z,64
2016-02-08T13:24:05.257Z,60
2016-02-08T13:25:05.337Z,64
2016-02-08T13:26:05.403Z,28
2016-02-08T13:27:05.437Z,64
2016-02-08T13:28:05.455Z,24
2016-02-08T13:29:05.942Z,36
2016-02-08T13:30:05.570Z,36
2016-02-08T13:31:05.541Z,28
2016-02-08T13:32:05.715Z,24
2016-02-08T13:33:05.734Z,24
2016-02-08T13:34:05.831Z,24
2016-02-08T13:35:05.802Z,36
2016-02-08T13:36:06.445Z,28
2016-02-08T13:37:05.949Z,36
2016-02-08T13:38:06.016Z,28
2016-02-08T13:39:06.064Z,28
2016-02-08T13:40:06.101Z,20
2016-02-08T13:41:06.197Z,20
2016-02-08T13:42:06.216Z,20
2016-02-08T13:43:06.249Z,20
2016-02-08T13:44:06.299Z,20
2016-02-08T13:45:06.411Z,20
2016-02-08T13:46:06.368Z,20
2016-02-08T13:47:06.479Z,20
2016-02-08T13:48:06.561Z,24
2016-02-08T13:49:06.610Z,28
2016-02-08T13:50:06.457Z,28
2016-02-08T13:51:06.709Z,28
2016-02-08T13:52:06.713Z,36
2016-02-08T13:53:06.918Z,28
2016-02-08T13:54:06.810Z,32
2016-02-08T13:55:06.892Z,28
2016-02-08T13:56:06.930Z,28
2016-02-08T13:57:07.011Z,28
2016-02-08T13:58:07.029Z,24
2016-02-08T13:59:07.094Z,28
2016-02-08T14:00:07.113Z,20
2016-02-08T14:01:07.178Z,16
2016-02-08T14:02:07.258Z,24
2016-02-08T14:03:07.276Z,16
2016-02-08T14:04:07.218Z,24
2016-02-08T14:05:07.377Z,28
2016-02-08T14:06:07.520Z,24
2016-02-08T14:07:07.509Z,20
2016-02-08T14:08:07.560Z,24
2016-02-08T14:09:07.642Z,28
2016-02-08T14:10:07.723Z,24
2016-02-08T14:11:07.756Z,24
2016-02-08T14:12:07.760Z,20
2016-02-08T14:13:07.825Z,12
2016-02-08T14:14:07.952Z,16
2016-02-08T14:15:07.924Z,16
2016-02-08T14:16:08.004Z,12
2016-02-08T14:17:08.071Z,12
2016-02-08T14:18:08.167Z,12
2016-02-08T14:19:08.184Z,8
2016-02-08T14:20:08.157Z,12
2016-02-08T14:21:08.270Z,12
2016-02-08T14:22:08.303Z,12
2016-02-08T14:23:08.400Z,12
2016-02-08T14:24:08.637Z,8
2016-02-08T14:25:08.484Z,12
2016-02-08T14:26:08.503Z,12
2016-02-08T14:27:08.567Z,12
2016-02-08T14:28:08.697Z,16
2016-02-08T14:29:08.637Z,16
2016-02-08T14:30:08.719Z,20
2016-02-08T14:31:08.737Z,20
2016-02-08T14:32:08.772Z,24
2016-02-08T14:33:08.855Z,28
2016-02-08T14:34:08.852Z,20
2016-02-08T14:35:08.944Z,20
2016-02-08T14:36:08.909Z,20